sensor_id;sensor_type;location;lat;lon;timestamp;temperature;humidity
36800;DHT22;22752;51.960;5.886;2023-12-29T00:00:06;11.70;99.90
36800;DHT22;22752;51.960;5.886;2023-12-29T00:02:32;11.70;99.90
36800;DHT22;22752;51.960;5.886;2023-12-29T00:04:57;11.70;99.90
36800;DHT22;22752;51.960;5.886;2023-12-29T00:07:23;11.70;99.90
36800;DHT22;22752;51.960;5.886;2023-12-29T00:09:49;11.70;99.90
36800;DHT22;22752;51.960;5.886;2023-12-29T00:12:14;11.70;99.90
36800;DHT22;22752;51.960;5.886;2023-12-29T00:14:40;11.70;99.90
36800;DHT22;22752;51.960;5.886;2023-12-29T00:17:05;11.80;99.90
36800;DHT22;22752;51.960;5.886;2023-12-29T00:19:31;11.70;99.90
36800;DHT22;22752;51.960;5.886;2023-12-29T00:21:57;11.70;99.90
36800;DHT22;22752;51.960;5.886;2023-12-29T00:24:22;11.70;99.90
36800;DHT22;22752;51.960;5.886;2023-12-29T00:26:48;11.70;99.90
36800;DHT22;22752;51.960;5.886;2023-12-29T00:29:14;11.70;99.90
36800;DHT22;22752;51.960;5.886;2023-12-29T00:31:40;11.80;99.90
36800;DHT22;22752;51.960;5.886;2023-12-29T00:34:07;11.70;99.90
36800;DHT22;22752;51.960;5.886;2023-12-29T00:36:32;11.60;99.90
36800;DHT22;22752;51.960;5.886;2023-12-29T00:38:58;11.60;99.90
36800;DHT22;22752;51.960;5.886;2023-12-29T00:41:24;11.50;99.90
36800;DHT22;22752;51.960;5.886;2023-12-29T00:43:49;11.50;99.90
36800;DHT22;22752;51.960;5.886;2023-12-29T00:46:15;11.50;99.90
36800;DHT22;22752;51.960;5.886;2023-12-29T00:48:43;11.50;99.90
36800;DHT22;22752;51.960;5.886;2023-12-29T00:51:09;11.50;99.90
36800;DHT22;22752;51.960;5.886;2023-12-29T00:53:35;11.50;99.90
36800;DHT22;22752;51.960;5.886;2023-12-29T00:56:01;11.50;99.90
36800;DHT22;22752;51.960;5.886;2023-12-29T00:58:26;11.60;99.90
36800;DHT22;22752;51.960;5.886;2023-12-29T01:00:52;11.60;99.90
36800;DHT22;22752;51.960;5.886;2023-12-29T01:03:18;11.60;99.90
36800;DHT22;22752;51.960;5.886;2023-12-29T01:05:44;11.60;99.90
36800;DHT22;22752;51.960;5.886;2023-12-29T01:08:09;11.60;99.90
36800;DHT22;22752;51.960;5.886;2023-12-29T01:10:35;11.60;99.90
36800;DHT22;22752;51.960;5.886;2023-12-29T01:13:00;11.60;99.90
36800;DHT22;22752;51.960;5.886;2023-12-29T01:15:26;11.70;99.90
36800;DHT22;22752;51.960;5.886;2023-12-29T01:17:52;11.60;99.90
36800;DHT22;22752;51.960;5.886;2023-12-29T01:20:18;11.60;99.90
36800;DHT22;22752;51.960;5.886;2023-12-29T01:22:43;11.60;99.90
36800;DHT22;22752;51.960;5.886;2023-12-29T01:25:09;11.60;99.90
36800;DHT22;22752;51.960;5.886;2023-12-29T01:27:35;11.60;99.90
36800;DHT22;22752;51.960;5.886;2023-12-29T01:30:00;11.50;99.90
36800;DHT22;22752;51.960;5.886;2023-12-29T01:32:26;11.50;99.90
36800;DHT22;22752;51.960;5.886;2023-12-29T01:34:52;11.40;99.90
36800;DHT22;22752;51.960;5.886;2023-12-29T01:37:18;11.40;99.90
36800;DHT22;22752;51.960;5.886;2023-12-29T01:39:44;11.40;99.90
36800;DHT22;22752;51.960;5.886;2023-12-29T01:42:10;11.40;99.90
36800;DHT22;22752;51.960;5.886;2023-12-29T01:44:36;11.40;99.90
36800;DHT22;22752;51.960;5.886;2023-12-29T01:47:04;11.40;99.90
36800;DHT22;22752;51.960;5.886;2023-12-29T01:49:36;11.40;99.90
36800;DHT22;22752;51.960;5.886;2023-12-29T01:52:02;11.40;99.90
36800;DHT22;22752;51.960;5.886;2023-12-29T01:54:32;11.30;99.90
36800;DHT22;22752;51.960;5.886;2023-12-29T01:57:01;11.40;99.90
36800;DHT22;22752;51.960;5.886;2023-12-29T01:59:28;11.40;99.90
36800;DHT22;22752;51.960;5.886;2023-12-29T02:01:55;11.40;99.90
36800;DHT22;22752;51.960;5.886;2023-12-29T02:04:23;11.30;99.90
36800;DHT22;22752;51.960;5.886;2023-12-29T02:06:48;11.40;99.90
36800;DHT22;22752;51.960;5.886;2023-12-29T02:09:16;11.40;99.90
36800;DHT22;22752;51.960;5.886;2023-12-29T02:11:42;11.40;99.90
36800;DHT22;22752;51.960;5.886;2023-12-29T02:14:08;11.40;99.90
36800;DHT22;22752;51.960;5.886;2023-12-29T02:16:38;11.40;99.90
36800;DHT22;22752;51.960;5.886;2023-12-29T02:22:01;11.40;99.90
36800;DHT22;22752;51.960;5.886;2023-12-29T02:24:26;11.30;99.90
36800;DHT22;22752;51.960;5.886;2023-12-29T02:29:45;11.30;99.90
36800;DHT22;22752;51.960;5.886;2023-12-29T02:32:16;11.30;99.90
36800;DHT22;22752;51.960;5.886;2023-12-29T02:34:44;11.20;99.90
36800;DHT22;22752;51.960;5.886;2023-12-29T02:37:12;11.20;99.90
36800;DHT22;22752;51.960;5.886;2023-12-29T02:39:38;11.20;99.90
36800;DHT22;22752;51.960;5.886;2023-12-29T02:42:04;11.10;99.90
36800;DHT22;22752;51.960;5.886;2023-12-29T02:44:30;11.10;99.90
36800;DHT22;22752;51.960;5.886;2023-12-29T02:46:55;11.10;99.90
36800;DHT22;22752;51.960;5.886;2023-12-29T02:49:21;11.10;99.90
36800;DHT22;22752;51.960;5.886;2023-12-29T02:51:47;11.10;99.90
36800;DHT22;22752;51.960;5.886;2023-12-29T02:54:15;11.00;99.90
36800;DHT22;22752;51.960;5.886;2023-12-29T02:56:41;11.10;99.90
36800;DHT22;22752;51.960;5.886;2023-12-29T02:59:06;11.10;99.90
36800;DHT22;22752;51.960;5.886;2023-12-29T03:01:32;11.00;99.90
36800;DHT22;22752;51.960;5.886;2023-12-29T03:03:57;11.00;99.90
36800;DHT22;22752;51.960;5.886;2023-12-29T03:06:23;11.00;99.90
36800;DHT22;22752;51.960;5.886;2023-12-29T03:08:50;11.00;99.90
36800;DHT22;22752;51.960;5.886;2023-12-29T03:11:16;11.00;99.90
36800;DHT22;22752;51.960;5.886;2023-12-29T03:13:41;11.10;99.90
36800;DHT22;22752;51.960;5.886;2023-12-29T03:16:07;11.10;99.90
36800;DHT22;22752;51.960;5.886;2023-12-29T03:18:32;11.10;99.90
36800;DHT22;22752;51.960;5.886;2023-12-29T03:20:58;11.10;99.90
36800;DHT22;22752;51.960;5.886;2023-12-29T03:23:24;11.10;99.90
36800;DHT22;22752;51.960;5.886;2023-12-29T03:25:49;11.10;99.90
36800;DHT22;22752;51.960;5.886;2023-12-29T03:28:15;11.10;99.90
36800;DHT22;22752;51.960;5.886;2023-12-29T03:30:41;11.10;99.90
36800;DHT22;22752;51.960;5.886;2023-12-29T03:33:06;11.10;99.90
36800;DHT22;22752;51.960;5.886;2023-12-29T03:35:32;11.10;99.90
36800;DHT22;22752;51.960;5.886;2023-12-29T03:37:57;11.20;99.90
36800;DHT22;22752;51.960;5.886;2023-12-29T03:40:23;11.20;99.90
36800;DHT22;22752;51.960;5.886;2023-12-29T03:42:49;11.20;99.90
36800;DHT22;22752;51.960;5.886;2023-12-29T03:45:14;11.20;99.90
36800;DHT22;22752;51.960;5.886;2023-12-29T03:47:40;11.20;99.90
36800;DHT22;22752;51.960;5.886;2023-12-29T03:50:06;11.30;99.90
36800;DHT22;22752;51.960;5.886;2023-12-29T03:52:31;11.30;99.90
36800;DHT22;22752;51.960;5.886;2023-12-29T03:54:57;11.30;99.90
36800;DHT22;22752;51.960;5.886;2023-12-29T03:57:23;11.30;99.90
36800;DHT22;22752;51.960;5.886;2023-12-29T03:59:48;11.30;99.90
36800;DHT22;22752;51.960;5.886;2023-12-29T04:02:14;11.30;99.90
36800;DHT22;22752;51.960;5.886;2023-12-29T04:04:40;11.40;99.90
36800;DHT22;22752;51.960;5.886;2023-12-29T04:07:06;11.40;99.90
36800;DHT22;22752;51.960;5.886;2023-12-29T04:09:32;11.40;99.90
36800;DHT22;22752;51.960;5.886;2023-12-29T04:11:57;11.40;99.90
36800;DHT22;22752;51.960;5.886;2023-12-29T04:14:23;11.40;99.90
36800;DHT22;22752;51.960;5.886;2023-12-29T04:16:49;11.40;99.90
36800;DHT22;22752;51.960;5.886;2023-12-29T04:19:14;11.40;99.90
36800;DHT22;22752;51.960;5.886;2023-12-29T04:21:40;11.40;99.90
36800;DHT22;22752;51.960;5.886;2023-12-29T04:24:06;11.40;99.90
36800;DHT22;22752;51.960;5.886;2023-12-29T04:26:37;11.40;99.90
36800;DHT22;22752;51.960;5.886;2023-12-29T04:29:03;11.40;99.90
36800;DHT22;22752;51.960;5.886;2023-12-29T04:31:29;11.40;99.90
36800;DHT22;22752;51.960;5.886;2023-12-29T04:33:54;11.30;99.90
36800;DHT22;22752;51.960;5.886;2023-12-29T04:36:20;11.30;99.90
36800;DHT22;22752;51.960;5.886;2023-12-29T04:38:46;11.30;99.90
36800;DHT22;22752;51.960;5.886;2023-12-29T04:41:14;11.30;99.90
36800;DHT22;22752;51.960;5.886;2023-12-29T04:43:40;11.30;99.90
36800;DHT22;22752;51.960;5.886;2023-12-29T04:46:06;11.30;99.90
36800;DHT22;22752;51.960;5.886;2023-12-29T04:48:31;11.30;99.90
36800;DHT22;22752;51.960;5.886;2023-12-29T04:50:57;11.30;99.90
36800;DHT22;22752;51.960;5.886;2023-12-29T04:53:22;11.40;99.90
36800;DHT22;22752;51.960;5.886;2023-12-29T04:55:48;11.40;99.90
36800;DHT22;22752;51.960;5.886;2023-12-29T04:58:14;11.40;99.90
36800;DHT22;22752;51.960;5.886;2023-12-29T05:00:39;11.40;99.90
36800;DHT22;22752;51.960;5.886;2023-12-29T05:03:05;11.30;99.90
36800;DHT22;22752;51.960;5.886;2023-12-29T05:05:31;11.40;99.90
36800;DHT22;22752;51.960;5.886;2023-12-29T05:07:56;11.40;99.90
36800;DHT22;22752;51.960;5.886;2023-12-29T05:10:22;11.40;99.90
36800;DHT22;22752;51.960;5.886;2023-12-29T05:12:47;11.40;99.90
36800;DHT22;22752;51.960;5.886;2023-12-29T05:15:13;11.40;99.90
36800;DHT22;22752;51.960;5.886;2023-12-29T05:17:39;11.40;99.90
36800;DHT22;22752;51.960;5.886;2023-12-29T05:20:06;11.40;99.90
36800;DHT22;22752;51.960;5.886;2023-12-29T05:22:32;11.40;99.90
36800;DHT22;22752;51.960;5.886;2023-12-29T05:24:59;11.40;99.90
36800;DHT22;22752;51.960;5.886;2023-12-29T05:27:26;11.30;99.90
36800;DHT22;22752;51.960;5.886;2023-12-29T05:29:52;11.30;99.90
36800;DHT22;22752;51.960;5.886;2023-12-29T05:32:17;11.30;99.90
36800;DHT22;22752;51.960;5.886;2023-12-29T05:34:43;11.30;99.90
36800;DHT22;22752;51.960;5.886;2023-12-29T05:37:09;11.30;99.90
36800;DHT22;22752;51.960;5.886;2023-12-29T05:39:34;11.20;99.90
36800;DHT22;22752;51.960;5.886;2023-12-29T05:42:00;11.20;99.90
36800;DHT22;22752;51.960;5.886;2023-12-29T05:44:26;11.20;99.90
36800;DHT22;22752;51.960;5.886;2023-12-29T05:46:51;11.20;99.90
36800;DHT22;22752;51.960;5.886;2023-12-29T05:49:17;11.10;99.90
36800;DHT22;22752;51.960;5.886;2023-12-29T05:51:44;11.10;99.90
36800;DHT22;22752;51.960;5.886;2023-12-29T05:54:10;11.10;99.90
36800;DHT22;22752;51.960;5.886;2023-12-29T05:56:35;11.10;99.90
36800;DHT22;22752;51.960;5.886;2023-12-29T05:59:01;11.00;99.90
36800;DHT22;22752;51.960;5.886;2023-12-29T06:01:27;11.00;99.90
36800;DHT22;22752;51.960;5.886;2023-12-29T06:03:52;11.00;99.90
36800;DHT22;22752;51.960;5.886;2023-12-29T06:06:18;11.00;99.90
36800;DHT22;22752;51.960;5.886;2023-12-29T06:08:44;11.00;99.90
36800;DHT22;22752;51.960;5.886;2023-12-29T06:11:15;11.10;99.90
36800;DHT22;22752;51.960;5.886;2023-12-29T06:13:41;11.00;99.90
36800;DHT22;22752;51.960;5.886;2023-12-29T06:16:07;11.00;99.90
36800;DHT22;22752;51.960;5.886;2023-12-29T06:18:32;11.00;99.90
36800;DHT22;22752;51.960;5.886;2023-12-29T06:20:58;11.10;99.90
36800;DHT22;22752;51.960;5.886;2023-12-29T06:23:24;11.00;99.90
36800;DHT22;22752;51.960;5.886;2023-12-29T06:25:54;11.00;99.90
36800;DHT22;22752;51.960;5.886;2023-12-29T06:28:20;11.00;99.90
36800;DHT22;22752;51.960;5.886;2023-12-29T06:30:45;10.90;99.90
36800;DHT22;22752;51.960;5.886;2023-12-29T06:33:11;10.90;99.90
36800;DHT22;22752;51.960;5.886;2023-12-29T06:35:37;10.90;99.90
36800;DHT22;22752;51.960;5.886;2023-12-29T06:38:04;10.90;99.90
36800;DHT22;22752;51.960;5.886;2023-12-29T06:40:30;10.90;99.90
36800;DHT22;22752;51.960;5.886;2023-12-29T06:42:55;10.90;99.90
36800;DHT22;22752;51.960;5.886;2023-12-29T06:45:21;10.90;99.90
36800;DHT22;22752;51.960;5.886;2023-12-29T06:47:47;10.90;99.90
36800;DHT22;22752;51.960;5.886;2023-12-29T06:50:12;10.90;99.90
36800;DHT22;22752;51.960;5.886;2023-12-29T06:52:39;10.90;99.90
36800;DHT22;22752;51.960;5.886;2023-12-29T06:55:05;10.90;99.90
36800;DHT22;22752;51.960;5.886;2023-12-29T06:57:31;10.90;99.90
36800;DHT22;22752;51.960;5.886;2023-12-29T06:59:57;10.90;99.90
36800;DHT22;22752;51.960;5.886;2023-12-29T07:02:22;11.00;99.90
36800;DHT22;22752;51.960;5.886;2023-12-29T07:04:48;11.00;99.90
36800;DHT22;22752;51.960;5.886;2023-12-29T07:07:14;11.00;99.90
36800;DHT22;22752;51.960;5.886;2023-12-29T07:09:40;10.90;99.90
36800;DHT22;22752;51.960;5.886;2023-12-29T07:12:06;10.90;99.90
36800;DHT22;22752;51.960;5.886;2023-12-29T07:14:32;10.80;99.90
36800;DHT22;22752;51.960;5.886;2023-12-29T07:16:58;10.80;99.90
36800;DHT22;22752;51.960;5.886;2023-12-29T07:19:24;10.80;99.90
36800;DHT22;22752;51.960;5.886;2023-12-29T07:21:49;10.70;99.90
36800;DHT22;22752;51.960;5.886;2023-12-29T07:24:15;10.70;99.90
36800;DHT22;22752;51.960;5.886;2023-12-29T07:26:41;10.60;99.90
36800;DHT22;22752;51.960;5.886;2023-12-29T07:29:06;10.60;99.90
36800;DHT22;22752;51.960;5.886;2023-12-29T07:31:32;10.60;99.90
36800;DHT22;22752;51.960;5.886;2023-12-29T07:33:59;10.50;99.90
36800;DHT22;22752;51.960;5.886;2023-12-29T07:36:24;10.50;99.90
36800;DHT22;22752;51.960;5.886;2023-12-29T07:38:50;10.50;99.90
36800;DHT22;22752;51.960;5.886;2023-12-29T07:41:16;10.50;99.90
36800;DHT22;22752;51.960;5.886;2023-12-29T07:43:42;10.50;99.90
36800;DHT22;22752;51.960;5.886;2023-12-29T07:46:08;10.40;99.90
36800;DHT22;22752;51.960;5.886;2023-12-29T07:48:33;10.50;99.90
36800;DHT22;22752;51.960;5.886;2023-12-29T07:51:05;10.50;99.90
36800;DHT22;22752;51.960;5.886;2023-12-29T07:53:31;10.50;99.90
36800;DHT22;22752;51.960;5.886;2023-12-29T07:55:56;10.40;99.90
36800;DHT22;22752;51.960;5.886;2023-12-29T07:58:22;10.50;99.90
36800;DHT22;22752;51.960;5.886;2023-12-29T08:00:48;10.50;99.90
36800;DHT22;22752;51.960;5.886;2023-12-29T08:03:13;10.50;99.90
36800;DHT22;22752;51.960;5.886;2023-12-29T08:05:39;10.50;99.90
36800;DHT22;22752;51.960;5.886;2023-12-29T08:08:05;10.50;99.90
36800;DHT22;22752;51.960;5.886;2023-12-29T08:10:31;10.50;99.90
36800;DHT22;22752;51.960;5.886;2023-12-29T08:12:57;10.50;99.90
36800;DHT22;22752;51.960;5.886;2023-12-29T08:15:23;10.50;99.90
36800;DHT22;22752;51.960;5.886;2023-12-29T08:17:48;10.50;99.90
36800;DHT22;22752;51.960;5.886;2023-12-29T08:20:14;10.50;99.90
36800;DHT22;22752;51.960;5.886;2023-12-29T08:22:40;10.50;99.90
36800;DHT22;22752;51.960;5.886;2023-12-29T08:25:05;10.50;99.90
36800;DHT22;22752;51.960;5.886;2023-12-29T08:27:31;10.60;99.90
36800;DHT22;22752;51.960;5.886;2023-12-29T08:29:57;10.60;99.90
36800;DHT22;22752;51.960;5.886;2023-12-29T08:32:22;10.60;99.90
36800;DHT22;22752;51.960;5.886;2023-12-29T08:34:48;10.60;99.90
36800;DHT22;22752;51.960;5.886;2023-12-29T08:37:14;10.60;99.90
36800;DHT22;22752;51.960;5.886;2023-12-29T08:39:46;10.60;99.90
36800;DHT22;22752;51.960;5.886;2023-12-29T08:42:12;10.70;99.90
36800;DHT22;22752;51.960;5.886;2023-12-29T08:44:38;10.70;99.90
36800;DHT22;22752;51.960;5.886;2023-12-29T08:47:04;10.70;99.90
36800;DHT22;22752;51.960;5.886;2023-12-29T08:49:33;10.70;99.90
36800;DHT22;22752;51.960;5.886;2023-12-29T08:51:59;10.70;99.90
36800;DHT22;22752;51.960;5.886;2023-12-29T08:54:25;10.80;99.90
36800;DHT22;22752;51.960;5.886;2023-12-29T08:56:51;10.80;99.90
36800;DHT22;22752;51.960;5.886;2023-12-29T08:59:16;10.90;99.90
36800;DHT22;22752;51.960;5.886;2023-12-29T09:01:42;10.80;99.90
36800;DHT22;22752;51.960;5.886;2023-12-29T09:04:08;10.90;99.90
36800;DHT22;22752;51.960;5.886;2023-12-29T09:06:33;10.90;99.90
36800;DHT22;22752;51.960;5.886;2023-12-29T09:09:00;10.90;99.90
36800;DHT22;22752;51.960;5.886;2023-12-29T09:11:25;11.00;99.90
36800;DHT22;22752;51.960;5.886;2023-12-29T09:13:52;11.00;99.90
36800;DHT22;22752;51.960;5.886;2023-12-29T09:16:17;11.00;99.90
36800;DHT22;22752;51.960;5.886;2023-12-29T09:18:43;11.00;99.90
36800;DHT22;22752;51.960;5.886;2023-12-29T09:21:09;11.00;99.90
36800;DHT22;22752;51.960;5.886;2023-12-29T09:23:34;11.10;99.90
36800;DHT22;22752;51.960;5.886;2023-12-29T09:26:03;11.10;99.90
36800;DHT22;22752;51.960;5.886;2023-12-29T09:28:28;11.20;99.90
36800;DHT22;22752;51.960;5.886;2023-12-29T09:30:54;11.20;99.90
36800;DHT22;22752;51.960;5.886;2023-12-29T09:33:20;11.20;99.90
36800;DHT22;22752;51.960;5.886;2023-12-29T09:35:48;11.20;99.90
36800;DHT22;22752;51.960;5.886;2023-12-29T09:38:13;11.20;99.90
36800;DHT22;22752;51.960;5.886;2023-12-29T09:40:39;11.20;99.90
36800;DHT22;22752;51.960;5.886;2023-12-29T09:43:05;11.20;99.90
36800;DHT22;22752;51.960;5.886;2023-12-29T09:45:33;11.10;99.90
36800;DHT22;22752;51.960;5.886;2023-12-29T09:48:01;11.20;99.90
36800;DHT22;22752;51.960;5.886;2023-12-29T09:50:28;11.20;99.90
36800;DHT22;22752;51.960;5.886;2023-12-29T09:52:54;11.20;99.90
36800;DHT22;22752;51.960;5.886;2023-12-29T09:55:20;11.20;99.90
36800;DHT22;22752;51.960;5.886;2023-12-29T09:57:47;11.20;99.90
36800;DHT22;22752;51.960;5.886;2023-12-29T10:00:16;11.30;99.90
36800;DHT22;22752;51.960;5.886;2023-12-29T10:02:42;11.30;99.90
36800;DHT22;22752;51.960;5.886;2023-12-29T10:05:08;11.40;99.90
36800;DHT22;22752;51.960;5.886;2023-12-29T10:07:38;11.40;99.90
36800;DHT22;22752;51.960;5.886;2023-12-29T10:10:05;11.50;99.90
36800;DHT22;22752;51.960;5.886;2023-12-29T10:12:36;11.50;99.90
36800;DHT22;22752;51.960;5.886;2023-12-29T10:15:06;11.60;99.90
36800;DHT22;22752;51.960;5.886;2023-12-29T10:23:22;11.70;99.90
36800;DHT22;22752;51.960;5.886;2023-12-29T10:25:52;11.70;99.90
36800;DHT22;22752;51.960;5.886;2023-12-29T10:28:18;11.70;99.90
36800;DHT22;22752;51.960;5.886;2023-12-29T10:30:44;11.70;99.90
36800;DHT22;22752;51.960;5.886;2023-12-29T10:33:09;11.70;99.90
36800;DHT22;22752;51.960;5.886;2023-12-29T10:35:36;11.70;99.90
36800;DHT22;22752;51.960;5.886;2023-12-29T10:38:12;11.70;99.90
36800;DHT22;22752;51.960;5.886;2023-12-29T10:40:38;11.70;99.90
36800;DHT22;22752;51.960;5.886;2023-12-29T10:43:04;11.70;99.90
36800;DHT22;22752;51.960;5.886;2023-12-29T10:45:33;11.80;99.90
36800;DHT22;22752;51.960;5.886;2023-12-29T10:48:00;11.80;99.90
36800;DHT22;22752;51.960;5.886;2023-12-29T10:50:26;11.80;99.90
36800;DHT22;22752;51.960;5.886;2023-12-29T10:53:10;11.70;99.90
36800;DHT22;22752;51.960;5.886;2023-12-29T10:55:37;11.80;99.90
36800;DHT22;22752;51.960;5.886;2023-12-29T10:58:02;11.70;99.90
36800;DHT22;22752;51.960;5.886;2023-12-29T11:00:31;11.70;99.90
36800;DHT22;22752;51.960;5.886;2023-12-29T11:03:00;11.70;99.90
36800;DHT22;22752;51.960;5.886;2023-12-29T11:05:26;11.80;99.90
36800;DHT22;22752;51.960;5.886;2023-12-29T11:07:54;11.80;99.90
36800;DHT22;22752;51.960;5.886;2023-12-29T11:10:21;11.90;99.90
36800;DHT22;22752;51.960;5.886;2023-12-29T11:12:47;12.00;99.90
36800;DHT22;22752;51.960;5.886;2023-12-29T11:15:14;12.00;99.90
36800;DHT22;22752;51.960;5.886;2023-12-29T11:17:42;12.00;99.90
36800;DHT22;22752;51.960;5.886;2023-12-29T11:20:17;12.00;99.90
36800;DHT22;22752;51.960;5.886;2023-12-29T11:22:46;12.00;99.90
36800;DHT22;22752;51.960;5.886;2023-12-29T11:25:12;12.10;99.90
36800;DHT22;22752;51.960;5.886;2023-12-29T11:27:39;12.10;99.90
36800;DHT22;22752;51.960;5.886;2023-12-29T11:30:06;12.20;99.90
36800;DHT22;22752;51.960;5.886;2023-12-29T11:32:56;12.20;99.90
36800;DHT22;22752;51.960;5.886;2023-12-29T11:35:43;12.20;99.90
36800;DHT22;22752;51.960;5.886;2023-12-29T11:38:47;12.10;99.90
36800;DHT22;22752;51.960;5.886;2023-12-29T11:41:34;12.20;99.90
36800;DHT22;22752;51.960;5.886;2023-12-29T11:44:02;12.10;99.90
36800;DHT22;22752;51.960;5.886;2023-12-29T11:46:53;12.20;99.90
36800;DHT22;22752;51.960;5.886;2023-12-29T11:49:19;12.10;99.90
36800;DHT22;22752;51.960;5.886;2023-12-29T11:51:49;12.10;99.90
36800;DHT22;22752;51.960;5.886;2023-12-29T11:54:25;12.10;99.90
36800;DHT22;22752;51.960;5.886;2023-12-29T11:56:53;12.10;99.90
36800;DHT22;22752;51.960;5.886;2023-12-29T12:01:47;12.00;99.90
36800;DHT22;22752;51.960;5.886;2023-12-29T12:04:36;12.00;99.90
36800;DHT22;22752;51.960;5.886;2023-12-29T12:09:49;12.00;99.90
36800;DHT22;22752;51.960;5.886;2023-12-29T12:12:41;12.00;99.90
36800;DHT22;22752;51.960;5.886;2023-12-29T12:15:31;12.10;99.90
36800;DHT22;22752;51.960;5.886;2023-12-29T12:18:01;12.10;99.90
36800;DHT22;22752;51.960;5.886;2023-12-29T12:20:29;12.00;99.90
36800;DHT22;22752;51.960;5.886;2023-12-29T12:23:00;12.00;99.90
36800;DHT22;22752;51.960;5.886;2023-12-29T12:25:27;12.00;99.90
36800;DHT22;22752;51.960;5.886;2023-12-29T12:27:56;12.00;99.90
36800;DHT22;22752;51.960;5.886;2023-12-29T12:30:22;12.00;99.90
36800;DHT22;22752;51.960;5.886;2023-12-29T12:32:58;12.10;99.90
36800;DHT22;22752;51.960;5.886;2023-12-29T12:35:24;12.00;99.90
36800;DHT22;22752;51.960;5.886;2023-12-29T12:38:14;12.00;99.90
36800;DHT22;22752;51.960;5.886;2023-12-29T12:40:40;12.10;99.90
36800;DHT22;22752;51.960;5.886;2023-12-29T12:43:06;12.00;99.90
36800;DHT22;22752;51.960;5.886;2023-12-29T12:45:42;12.00;99.90
36800;DHT22;22752;51.960;5.886;2023-12-29T12:48:28;12.00;99.90
36800;DHT22;22752;51.960;5.886;2023-12-29T12:50:55;12.00;99.90
36800;DHT22;22752;51.960;5.886;2023-12-29T12:53:23;12.00;99.90
36800;DHT22;22752;51.960;5.886;2023-12-29T12:55:50;11.90;99.90
36800;DHT22;22752;51.960;5.886;2023-12-29T12:58:18;11.90;99.90
36800;DHT22;22752;51.960;5.886;2023-12-29T13:00:46;11.80;99.90
36800;DHT22;22752;51.960;5.886;2023-12-29T13:03:12;11.80;99.90
36800;DHT22;22752;51.960;5.886;2023-12-29T13:05:38;11.80;99.90
36800;DHT22;22752;51.960;5.886;2023-12-29T13:08:05;11.80;99.90
36800;DHT22;22752;51.960;5.886;2023-12-29T13:10:31;11.80;99.90
36800;DHT22;22752;51.960;5.886;2023-12-29T13:12:57;11.80;99.90
36800;DHT22;22752;51.960;5.886;2023-12-29T13:15:22;11.80;99.90
36800;DHT22;22752;51.960;5.886;2023-12-29T13:17:53;11.80;99.90
36800;DHT22;22752;51.960;5.886;2023-12-29T13:20:19;11.80;99.90
36800;DHT22;22752;51.960;5.886;2023-12-29T13:22:49;11.70;99.90
36800;DHT22;22752;51.960;5.886;2023-12-29T13:25:20;11.70;99.90
36800;DHT22;22752;51.960;5.886;2023-12-29T13:27:48;11.70;99.90
36800;DHT22;22752;51.960;5.886;2023-12-29T13:30:14;11.70;99.90
36800;DHT22;22752;51.960;5.886;2023-12-29T13:32:41;11.70;99.90
36800;DHT22;22752;51.960;5.886;2023-12-29T13:35:23;11.70;99.90
36800;DHT22;22752;51.960;5.886;2023-12-29T13:37:59;11.70;99.90
36800;DHT22;22752;51.960;5.886;2023-12-29T13:40:41;11.70;99.90
36800;DHT22;22752;51.960;5.886;2023-12-29T13:43:10;11.70;99.90
36800;DHT22;22752;51.960;5.886;2023-12-29T13:45:39;11.70;99.90
36800;DHT22;22752;51.960;5.886;2023-12-29T13:48:06;11.70;99.90
36800;DHT22;22752;51.960;5.886;2023-12-29T13:50:33;11.70;99.90
36800;DHT22;22752;51.960;5.886;2023-12-29T13:52:59;11.70;99.90
36800;DHT22;22752;51.960;5.886;2023-12-29T13:55:25;11.70;99.90
36800;DHT22;22752;51.960;5.886;2023-12-29T13:57:51;11.70;99.90
36800;DHT22;22752;51.960;5.886;2023-12-29T14:00:24;11.70;99.90
36800;DHT22;22752;51.960;5.886;2023-12-29T14:05:51;11.70;99.90
36800;DHT22;22752;51.960;5.886;2023-12-29T14:08:19;11.80;99.90
36800;DHT22;22752;51.960;5.886;2023-12-29T14:10:48;11.80;99.90
36800;DHT22;22752;51.960;5.886;2023-12-29T14:13:15;11.80;99.90
36800;DHT22;22752;51.960;5.886;2023-12-29T14:15:43;11.80;99.90
36800;DHT22;22752;51.960;5.886;2023-12-29T14:20:38;11.80;99.90
36800;DHT22;22752;51.960;5.886;2023-12-29T14:23:05;11.90;99.90
36800;DHT22;22752;51.960;5.886;2023-12-29T14:25:34;11.80;99.90
36800;DHT22;22752;51.960;5.886;2023-12-29T14:28:04;11.70;99.90
36800;DHT22;22752;51.960;5.886;2023-12-29T14:30:30;11.70;99.90
36800;DHT22;22752;51.960;5.886;2023-12-29T14:33:00;11.70;99.90
36800;DHT22;22752;51.960;5.886;2023-12-29T14:35:25;11.60;99.90
36800;DHT22;22752;51.960;5.886;2023-12-29T14:37:51;11.60;99.90
36800;DHT22;22752;51.960;5.886;2023-12-29T14:40:17;11.50;99.90
36800;DHT22;22752;51.960;5.886;2023-12-29T14:42:42;11.40;99.90
36800;DHT22;22752;51.960;5.886;2023-12-29T14:45:09;11.20;99.90
36800;DHT22;22752;51.960;5.886;2023-12-29T14:47:35;11.10;99.90
36800;DHT22;22752;51.960;5.886;2023-12-29T14:50:01;11.00;99.90
36800;DHT22;22752;51.960;5.886;2023-12-29T14:52:27;10.90;99.90
36800;DHT22;22752;51.960;5.886;2023-12-29T14:54:52;10.90;99.90
36800;DHT22;22752;51.960;5.886;2023-12-29T14:57:18;10.80;99.90
36800;DHT22;22752;51.960;5.886;2023-12-29T14:59:44;10.80;99.90
36800;DHT22;22752;51.960;5.886;2023-12-29T15:02:09;10.80;99.90
36800;DHT22;22752;51.960;5.886;2023-12-29T15:04:35;10.70;99.90
36800;DHT22;22752;51.960;5.886;2023-12-29T15:07:02;10.70;99.90
36800;DHT22;22752;51.960;5.886;2023-12-29T15:09:28;10.70;99.90
36800;DHT22;22752;51.960;5.886;2023-12-29T15:11:54;10.70;99.90
36800;DHT22;22752;51.960;5.886;2023-12-29T15:14:20;10.70;99.90
36800;DHT22;22752;51.960;5.886;2023-12-29T15:16:46;10.70;99.90
36800;DHT22;22752;51.960;5.886;2023-12-29T15:19:12;10.70;99.90
36800;DHT22;22752;51.960;5.886;2023-12-29T15:21:40;10.70;99.90
36800;DHT22;22752;51.960;5.886;2023-12-29T15:24:06;10.60;99.90
36800;DHT22;22752;51.960;5.886;2023-12-29T15:26:33;10.60;99.90
36800;DHT22;22752;51.960;5.886;2023-12-29T15:28:58;10.70;99.90
36800;DHT22;22752;51.960;5.886;2023-12-29T15:31:24;10.60;99.90
36800;DHT22;22752;51.960;5.886;2023-12-29T15:33:50;10.70;99.90
36800;DHT22;22752;51.960;5.886;2023-12-29T15:36:16;10.70;99.90
36800;DHT22;22752;51.960;5.886;2023-12-29T15:38:52;10.70;99.90
36800;DHT22;22752;51.960;5.886;2023-12-29T15:41:18;10.70;99.90
36800;DHT22;22752;51.960;5.886;2023-12-29T15:43:43;10.70;99.90
36800;DHT22;22752;51.960;5.886;2023-12-29T15:46:16;10.70;99.90
36800;DHT22;22752;51.960;5.886;2023-12-29T15:48:43;10.70;99.90
36800;DHT22;22752;51.960;5.886;2023-12-29T15:51:10;10.70;99.90